x

Buoy E01 - Central Maine Shelf (44032) Wave Buoy

6:04 - Wed 4th Mar 2015 All times are EST. -5 hours from GMT.

  • Sig Wave height 6.9ft
  • Peak Period 8s
  • Wind
    16mph, 20mph gusts
  • Sea Temp 37°f
  • Luft Temp 40°f
  • Sea Pressure 1005mb
  • Buoy E01 - Central Maine Shelf
  • Buoy E01 - Central Maine Shelf

More Historic Weather Station data

Upgrade to MSW Pro to gain access to the past 30 days of data for over 8000 Wavebouys and Weather Stations around the globe.

Join Pro

Comparision Forecast

View Surf forecast
   
Mi 03/04 6:04 7ft 8s 16 20 mph 1005mb 37f 40f
5:04 4.5ft 6s 13 18 mph 1005mb 37f 40f
4:04 5ft 8s 16 18 mph 1004.3mb 37f 39f
3:04 5ft 8s 13 18 mph 1004.2mb 37f 39f
2:04 7ft 8s 18 20 mph 1004.6mb 37f 39f
1:04 5.5ft 8s 18 22 mph 1004.5mb 37f 38f
12:04 7ft 8s 18 22 mph 1004.3mb 37f 38f
11:04 6ft 8s 18 20 mph 1004mb 37f 37f
10:04 7ft 8s 18 20 mph 1003.3mb 37f 37f
9:04 8ft 8s 18 20 mph 1003.9mb 37f 37f
8:04 9ft 8s 18 22 mph 1003.7mb 37f 37f
7:04 9ft 8s 22 27 mph 1002.4mb 37f 37f
6:04 10ft 8s 22 27 mph 1001.3mb 37f 36f
5:04 9ft 8s 20 25 mph 1001.3mb 37f 37f
4:04 9ft 8s 22 25 mph 1001.8mb 37f 37f
3:04 8.5ft 8s 22 27 mph 1002.9mb 37f 37f
2:04 10.5ft 8s 27 31 mph 1005.1mb 37f 36f
1:04 8.5ft 6s 29 36 mph 1006.5mb 37f 34f
12:04 11ft 6s 27 34 mph - 37f 32f
Di 03/03 11:04 8ft 6s 27 34 mph 1011mb 37f 31f
10:04 8.5ft 6s 29 36 mph 1013.8mb 37f 30f
9:04 6ft 5s 29 34 mph 1016.1mb 37f 29f
8:04 4ft 5s 25 29 mph 1017.2mb 37f 31f
7:04 3.5ft 4s 22 27 mph 1019.3mb 37f 31f
6:04  -   -  20 27 mph 1020.5mb 37f 30f
5:04 2.5ft 11s 18 22 mph 1021.6mb 37f 29f
4:04 1.6ft 3s 16 20 mph 1022.9mb 37f 28f
3:04 1.6ft 3s 13 18 mph 1024.1mb 37f 27f
2:04 1.6ft 4s 13 16 mph 1024.7mb 37f 25f
1:04 2.5ft 11s 13 18 mph 1026mb 37f 25f
12:04 2ft 3s 13 20 mph 1026.4mb 37f 24f
11:04 1.6ft 3s 16 18 mph 1027.3mb 37f 22f
10:04 2ft 3s 16 20 mph 1027.4mb 37f 21f
9:04 2.5ft 11s 16 20 mph 1027.5mb 37f 20f
8:04 2ft 3s 16 20 mph 1027.3mb 37f 20f
7:04 2.5ft 3s 20 22 mph 1026.9mb 37f 20f
6:04 3.5ft 4s 22 27 mph 1026.4mb 36f 20f
5:04 3ft 4s 20 27 mph 1025.6mb 36f 21f
4:04 3ft 4s 22 29 mph 1024mb 36f 21f
3:04 4ft 4s 25 34 mph 1023.3mb 36f 22f
2:04 4ft 4s 25 31 mph 1022.7mb 36f 22f
1:04 5ft 4s 27 36 mph 1021.6mb 36f 23f
12:04 6.5ft 5s 29 43 mph 1020.5mb 36f 24f
Mo 03/02 11:04 6ft 5s 34 47 mph 1018.8mb 36f 25f
10:04 5.5ft 5s 27 34 mph 1017.9mb 36f 28f
9:04 5ft 5s 31 40 mph 1016.7mb 36f 29f
8:04 6ft 5s 27 31 mph 1015.8mb 36f 29f
7:04 6ft 5s 31 43 mph 1015.2mb 36f 29f
6:04 6ft 5s 31 47 mph 1013.6mb 36f 31f
5:04 5ft 5s 29 34 mph 1012.1mb 36f 32f
4:04 5.5ft 5s 29 34 mph 1011.3mb 36f 32f
3:04 5ft 5s 29 34 mph 1010.1mb 36f 33f
2:04 4.5ft 4s 27 34 mph 1009.3mb 36f 33f
1:04 3ft 3s 22 29 mph 1009.1mb 36f 33f
12:04 2.5ft 5s 18 20 mph 1009.8mb 36f 30f
11:04 2.5ft 6s 13 16 mph 1010.3mb 36f 28f
10:04 2.5ft 6s 18 25 mph 1010mb 36f 28f
9:04 3ft 6s 11 13 mph 1010.4mb 36f 28f
8:04 3ft 5s 16 18 mph 1010.8mb 36f 28f
7:04 3.5ft 5s 13 16 mph 1011mb 36f 28f
6:04 3ft 6s 16 18 mph 1011.4mb 36f 27f
5:04 4ft 6s 13 16 mph 1012mb 36f 27f
4:04 4ft 5s 11 16 mph 1012.5mb 36f 27f
3:04 4.5ft 6s 13 16 mph 1013.4mb 36f 28f
2:04 4.5ft 6s 16 18 mph 1014.9mb 36f 29f
1:04 6ft 6s 18 22 mph 1016.8mb 36f 29f
12:04 6ft 5s 20 25 mph 1017.6mb 36f 30f
So 03/01 11:04 7ft 6s 22 27 mph 1019.2mb 36f 31f
10:04 6.5ft 5s 20 25 mph 1020.8mb 36f 31f
9:04 6ft 6s 25 36 mph 1022.6mb 37f 30f
8:04 6ft 6s 22 27 mph 1023.5mb 36f 29f
7:04 6ft 5s 22 29 mph 1025.1mb 36f 31f
6:04 5ft 5s 22 27 mph 1026.5mb 36f 32f
5:04 4ft 4s 20 27 mph 1027.8mb 37f 31f
4:04 3.5ft 4s 18 25 mph 1029.2mb 37f 31f
3:04 2.5ft 3s 18 20 mph 1030mb 37f 31f
2:04 2.5ft 11s 16 20 mph 1031mb 36f 31f
1:04 2.5ft 11s 13 16 mph 1031.9mb 37f 31f
12:04 1.6ft 11s 7 11 mph 1033.5mb 37f 31f
11:04 1.6ft 11s 7 11 mph 1035.2mb 36f 30f
10:04 2.5ft 11s 9 11 mph 1036mb 37f 29f
9:04 1.6ft 11s 7 11 mph 1036.8mb 37f 28f
8:04 1.6ft 11s 9 11 mph 1037.4mb 37f 26f
7:04 2ft 11s 4 7 mph 1037.5mb 37f 28f
6:04 2.5ft 8s 9 11 mph 1037.4mb 37f 25f
5:04 2.5ft 11s 9 11 mph 1037.8mb 37f 26f
4:04 2.5ft 11s 7 9 mph 1038.1mb 37f 27f
3:04 2.5ft 11s 4 7 mph 1038mb 37f 27f
2:04 3.5ft 11s 4 7 mph 1038.2mb 37f 27f
1:04 3.5ft 11s 9 11 mph 1038.1mb 37f 28f